EZY5615 EGNT-LTBS
Flight info
| Callsign | EZY5615 |
|---|---|
| Flight time | 3h 54m |
| Altitude | 35000 |
| Route | GIRLI P18 GASKO Y250 KEFTE UY250 MAMUL L603 DOLAS DCT NAVPI DCT DODEN DCT NEGIX DCT DINKU DCT BESNI DCT GOMIG DCT BEDOX DCT LURID DCT VABEK/N0440F370 UL603 OLOTA DCT RUGAS DCT RIKSO UP14 ODNOD UT491 SONUP |
| Aircraft | A320/M-SDE3FGHIRWY/LB1 |
Departure
| Time | 2026-04-14 13:18 |
|---|---|
| Airport | Newcastle International Airport (EGNT) |
Arrival
| Time | 2026-04-14 17:13 |
|---|---|
| Airport | Dalaman International Airport (LTBS) |
| Time | Latitude | Longitude | Altitude | Speed | Heading |
|---|---|---|---|---|---|
| 2026-04-14 12:14 | 55.03668 | -1.70588 | 268 ft | 0 kts | 319° |
| 2026-04-14 13:04 | 55.03667 | -1.70587 | 267 ft | 2 kts | 319° |
| 2026-04-14 13:05 | 55.03649 | -1.70558 | 267 ft | 4 kts | 319° |
| 2026-04-14 13:05 | 55.03629 | -1.70529 | 267 ft | 4 kts | 335° |
| 2026-04-14 13:05 | 55.03605 | -1.70523 | 267 ft | 4 kts | 27° |
| 2026-04-14 13:05 | 55.03593 | -1.70547 | 267 ft | 1 kts | 84° |
| 2026-04-14 13:06 | 55.03591 | -1.70578 | 267 ft | 0 kts | 84° |
| 2026-04-14 13:12 | 55.03600 | -1.70503 | 267 ft | 13 kts | 65° |
| 2026-04-14 13:12 | 55.03673 | -1.70438 | 267 ft | 11 kts | 4° |
| 2026-04-14 13:12 | 55.03746 | -1.70425 | 267 ft | 9 kts | 16° |
| 2026-04-14 13:12 | 55.03781 | -1.70338 | 267 ft | 12 kts | 91° |
| 2026-04-14 13:13 | 55.03774 | -1.70168 | 263 ft | 16 kts | 94° |
| 2026-04-14 13:13 | 55.03775 | -1.69958 | 260 ft | 19 kts | 86° |
| 2026-04-14 13:13 | 55.03797 | -1.69722 | 258 ft | 21 kts | 76° |
| 2026-04-14 13:13 | 55.03844 | -1.69472 | 256 ft | 23 kts | 66° |
| 2026-04-14 13:14 | 55.03914 | -1.69211 | 253 ft | 25 kts | 65° |
| 2026-04-14 13:14 | 55.03988 | -1.68929 | 251 ft | 26 kts | 66° |
| 2026-04-14 13:14 | 55.04067 | -1.68632 | 249 ft | 28 kts | 65° |
| 2026-04-14 13:14 | 55.04148 | -1.68323 | 248 ft | 29 kts | 66° |
| 2026-04-14 13:15 | 55.04233 | -1.68006 | 247 ft | 29 kts | 65° |
| 2026-04-14 13:15 | 55.04306 | -1.67732 | 245 ft | 15 kts | 66° |
| 2026-04-14 13:15 | 55.04332 | -1.67559 | 243 ft | 15 kts | 92° |
| 2026-04-14 13:15 | 55.04321 | -1.67412 | 241 ft | 9 kts | 113° |
| 2026-04-14 13:16 | 55.04319 | -1.67406 | 241 ft | 0 kts | 117° |
| 2026-04-14 13:16 | 55.04317 | -1.67402 | 241 ft | 1 kts | 119° |
| 2026-04-14 13:17 | 55.04302 | -1.67383 | 241 ft | 5 kts | 154° |
| 2026-04-14 13:17 | 55.04247 | -1.67358 | 241 ft | 9 kts | 169° |
| 2026-04-14 13:17 | 55.04205 | -1.67431 | 242 ft | 13 kts | 243° |
| 2026-04-14 13:17 | 55.04107 | -1.67800 | 247 ft | 66 kts | 245° |
| 2026-04-14 13:18 | 55.03828 | -1.68898 | 252 ft | 128 kts | 245° |
| 2026-04-14 13:18 | 55.03373 | -1.70541 | 399 ft | 161 kts | 244° |
| 2026-04-14 13:18 | 55.02972 | -1.72306 | 1157 ft | 156 kts | 243° |
| 2026-04-14 13:18 | 55.02511 | -1.74085 | 1713 ft | 167 kts | 238° |
| 2026-04-14 13:19 | 55.01804 | -1.75724 | 2025 ft | 176 kts | 206° |
| 2026-04-14 13:19 | 55.00579 | -1.76188 | 2261 ft | 192 kts | 181° |
| 2026-04-14 13:19 | 54.99204 | -1.76651 | 2540 ft | 215 kts | 199° |
| 2026-04-14 13:19 | 54.97748 | -1.77673 | 2941 ft | 235 kts | 200° |
| 2026-04-14 13:20 | 54.96204 | -1.78732 | 3700 ft | 240 kts | 199° |
| 2026-04-14 13:20 | 54.94641 | -1.79801 | 4545 ft | 243 kts | 201° |
| 2026-04-14 13:20 | 54.93060 | -1.80884 | 5348 ft | 246 kts | 202° |
| 2026-04-14 13:20 | 54.91448 | -1.81983 | 6105 ft | 251 kts | 202° |
| 2026-04-14 13:21 | 54.89807 | -1.83099 | 6867 ft | 254 kts | 202° |
| 2026-04-14 13:21 | 54.88146 | -1.84227 | 7578 ft | 259 kts | 203° |
| 2026-04-14 13:21 | 54.86460 | -1.85367 | 8350 ft | 261 kts | 203° |
| 2026-04-14 13:21 | 54.84775 | -1.86506 | 9088 ft | 266 kts | 203° |
| 2026-04-14 13:22 | 54.82978 | -1.87526 | 9810 ft | 271 kts | 195° |
| 2026-04-14 13:22 | 54.81107 | -1.88254 | 10250 ft | 285 kts | 194° |
| 2026-04-14 13:22 | 54.79115 | -1.88995 | 10399 ft | 308 kts | 194° |
| 2026-04-14 13:22 | 54.76953 | -1.89796 | 10667 ft | 325 kts | 194° |
| 2026-04-14 13:23 | 54.74724 | -1.90615 | 11239 ft | 330 kts | 194° |
| 2026-04-14 13:23 | 54.72461 | -1.91443 | 11826 ft | 334 kts | 194° |
| 2026-04-14 13:23 | 54.70176 | -1.92283 | 12451 ft | 337 kts | 194° |
| 2026-04-14 13:23 | 54.67872 | -1.93117 | 13093 ft | 340 kts | 194° |
| 2026-04-14 13:24 | 54.65541 | -1.93949 | 13718 ft | 343 kts | 194° |
| 2026-04-14 13:24 | 54.60822 | -1.95597 | 14810 ft | 350 kts | 194° |
| 2026-04-14 13:24 | 54.58420 | -1.96428 | 15341 ft | 354 kts | 194° |
| 2026-04-14 13:25 | 54.55990 | -1.97264 | 15843 ft | 358 kts | 194° |
| 2026-04-14 13:25 | 54.53531 | -1.98109 | 16349 ft | 362 kts | 194° |
| 2026-04-14 13:26 | 54.45996 | -2.00670 | 17823 ft | 373 kts | 194° |
| 2026-04-14 13:26 | 54.43434 | -2.01538 | 18325 ft | 377 kts | 194° |
| 2026-04-14 13:26 | 54.40849 | -2.02409 | 18734 ft | 381 kts | 194° |
| 2026-04-14 13:26 | 54.38238 | -2.03277 | 19153 ft | 384 kts | 194° |
| 2026-04-14 13:27 | 54.35609 | -2.04142 | 19582 ft | 386 kts | 194° |
| 2026-04-14 13:27 | 54.32955 | -2.05004 | 19992 ft | 389 kts | 194° |
| 2026-04-14 13:27 | 54.30277 | -2.05863 | 20409 ft | 392 kts | 194° |
| 2026-04-14 13:27 | 54.27583 | -2.06718 | 20816 ft | 395 kts | 194° |
| 2026-04-14 13:28 | 54.24866 | -2.07569 | 21221 ft | 398 kts | 194° |
| 2026-04-14 13:28 | 54.22132 | -2.08416 | 21581 ft | 401 kts | 194° |
| 2026-04-14 13:28 | 54.19355 | -2.09113 | 21993 ft | 407 kts | 186° |
| 2026-04-14 13:28 | 54.16508 | -2.08615 | 22364 ft | 419 kts | 168° |
| 2026-04-14 13:29 | 54.13805 | -2.06600 | 22704 ft | 430 kts | 152° |
| 2026-04-14 13:29 | 54.11274 | -2.03832 | 23079 ft | 434 kts | 150° |
| 2026-04-14 13:29 | 54.08740 | -2.01011 | 23462 ft | 437 kts | 150° |
| 2026-04-14 13:29 | 54.06193 | -1.98158 | 23774 ft | 440 kts | 150° |
| 2026-04-14 13:30 | 54.03626 | -1.95286 | 24058 ft | 443 kts | 150° |
| 2026-04-14 13:30 | 54.01037 | -1.92404 | 24337 ft | 446 kts | 150° |
| 2026-04-14 13:30 | 53.98429 | -1.89515 | 24618 ft | 449 kts | 150° |
| 2026-04-14 13:30 | 53.95800 | -1.86624 | 24893 ft | 452 kts | 151° |
| 2026-04-14 13:31 | 53.93145 | -1.83712 | 25171 ft | 455 kts | 151° |
| 2026-04-14 13:31 | 53.90515 | -1.80829 | 25439 ft | 458 kts | 151° |
| 2026-04-14 13:31 | 53.87832 | -1.77883 | 25687 ft | 461 kts | 151° |
| 2026-04-14 13:31 | 53.85136 | -1.74921 | 25949 ft | 463 kts | 151° |
| 2026-04-14 13:32 | 53.82425 | -1.71950 | 26211 ft | 466 kts | 151° |
| 2026-04-14 13:32 | 53.79688 | -1.68965 | 26468 ft | 469 kts | 151° |
| 2026-04-14 13:32 | 53.76940 | -1.65974 | 26719 ft | 472 kts | 151° |
| 2026-04-14 13:32 | 53.74172 | -1.62968 | 26977 ft | 474 kts | 151° |
| 2026-04-14 13:33 | 53.71387 | -1.59949 | 27185 ft | 478 kts | 151° |
| 2026-04-14 13:33 | 53.68579 | -1.56904 | 27394 ft | 481 kts | 151° |
| 2026-04-14 13:33 | 53.65759 | -1.53843 | 27650 ft | 484 kts | 151° |
| 2026-04-14 13:33 | 53.62917 | -1.50768 | 27884 ft | 487 kts | 151° |
| 2026-04-14 13:34 | 53.57182 | -1.44574 | 28358 ft | 492 kts | 151° |
| 2026-04-14 13:34 | 53.54293 | -1.41461 | 28591 ft | 494 kts | 151° |
| 2026-04-14 13:34 | 53.51391 | -1.38340 | 28803 ft | 497 kts | 151° |
| 2026-04-14 13:35 | 53.48491 | -1.35141 | 29022 ft | 501 kts | 147° |
| 2026-04-14 13:35 | 53.45807 | -1.31375 | 29233 ft | 507 kts | 137° |
| 2026-04-14 13:35 | 53.43444 | -1.26959 | 29444 ft | 511 kts | 128° |
| 2026-04-14 13:35 | 53.41466 | -1.21988 | 29648 ft | 514 kts | 119° |
| 2026-04-14 13:36 | 53.39891 | -1.16592 | 29851 ft | 516 kts | 111° |
| 2026-04-14 13:36 | 53.38715 | -1.10898 | 30044 ft | 517 kts | 105° |
| 2026-04-14 13:36 | 53.37661 | -1.05135 | 30286 ft | 518 kts | 105° |
| 2026-04-14 13:36 | 53.36600 | -0.99373 | 30557 ft | 518 kts | 105° |
| 2026-04-14 13:37 | 53.35533 | -0.93617 | 30820 ft | 517 kts | 105° |
| 2026-04-14 13:37 | 53.34463 | -0.87870 | 31083 ft | 517 kts | 105° |
| 2026-04-14 13:37 | 53.33394 | -0.82133 | 31344 ft | 517 kts | 105° |
| 2026-04-14 13:37 | 53.32323 | -0.76390 | 31598 ft | 517 kts | 105° |
| 2026-04-14 13:38 | 53.31251 | -0.70657 | 31840 ft | 517 kts | 105° |
| 2026-04-14 13:38 | 53.30178 | -0.64917 | 32099 ft | 517 kts | 105° |
| 2026-04-14 13:38 | 53.29469 | -0.61121 | 32267 ft | 516 kts | 105° |
| 2026-04-14 13:38 | 53.28396 | -0.55397 | 32522 ft | 516 kts | 105° |
| 2026-04-14 13:39 | 53.27318 | -0.49674 | 32762 ft | 516 kts | 105° |
| 2026-04-14 13:39 | 53.26234 | -0.43956 | 33001 ft | 517 kts | 105° |
| 2026-04-14 13:39 | 53.25144 | -0.38236 | 33062 ft | 517 kts | 105° |
| 2026-04-14 13:40 | 53.22971 | -0.26831 | 33085 ft | 515 kts | 105° |
| 2026-04-14 13:40 | 53.20789 | -0.15445 | 33084 ft | 514 kts | 105° |
| 2026-04-14 13:41 | 53.18589 | -0.04091 | 33083 ft | 514 kts | 105° |
| 2026-04-14 13:41 | 53.16382 | 0.07250 | 33093 ft | 514 kts | 104° |
| 2026-04-14 13:42 | 53.14173 | 0.18568 | 33096 ft | 514 kts | 105° |
| 2026-04-14 13:42 | 53.11958 | 0.29879 | 33097 ft | 514 kts | 105° |
| 2026-04-14 13:43 | 53.09731 | 0.41175 | 33108 ft | 514 kts | 105° |
| 2026-04-14 13:43 | 53.07486 | 0.52457 | 33122 ft | 514 kts | 104° |
| 2026-04-14 13:43 | 53.06359 | 0.58087 | 33226 ft | 512 kts | 105° |
| 2026-04-14 13:44 | 53.05230 | 0.63704 | 33360 ft | 512 kts | 105° |
| 2026-04-14 13:44 | 53.04101 | 0.69313 | 33503 ft | 512 kts | 105° |
| 2026-04-14 13:44 | 53.02972 | 0.74919 | 33632 ft | 512 kts | 105° |
| 2026-04-14 13:44 | 53.01840 | 0.80525 | 33772 ft | 512 kts | 105° |
| 2026-04-14 13:45 | 53.00707 | 0.86125 | 33917 ft | 511 kts | 104° |
| 2026-04-14 13:45 | 52.99574 | 0.91717 | 34027 ft | 510 kts | 104° |
| 2026-04-14 13:45 | 52.98437 | 0.97296 | 34155 ft | 510 kts | 104° |
| 2026-04-14 13:45 | 52.97286 | 1.02861 | 34296 ft | 510 kts | 105° |
| 2026-04-14 13:46 | 52.96083 | 1.08389 | 34413 ft | 510 kts | 107° |
| 2026-04-14 13:46 | 52.94838 | 1.13889 | 34527 ft | 510 kts | 107° |
| 2026-04-14 13:46 | 52.93568 | 1.19375 | 34649 ft | 510 kts | 108° |
| 2026-04-14 13:46 | 52.92290 | 1.24852 | 34767 ft | 509 kts | 108° |
| 2026-04-14 13:47 | 52.91033 | 1.30257 | 34898 ft | 509 kts | 108° |
| 2026-04-14 13:47 | 52.89768 | 1.35737 | 35042 ft | 509 kts | 107° |
| 2026-04-14 13:47 | 52.88514 | 1.41214 | 35120 ft | 508 kts | 107° |
| 2026-04-14 13:48 | 52.86019 | 1.52139 | 35159 ft | 507 kts | 107° |
| 2026-04-14 13:48 | 52.83525 | 1.63022 | 35158 ft | 505 kts | 107° |
| 2026-04-14 13:49 | 52.81019 | 1.73862 | 35154 ft | 505 kts | 108° |
| 2026-04-14 13:49 | 52.78492 | 1.84689 | 35161 ft | 505 kts | 108° |
| 2026-04-14 13:50 | 52.75949 | 1.95501 | 35159 ft | 505 kts | 108° |
| 2026-04-14 13:50 | 52.73403 | 2.06296 | 35193 ft | 504 kts | 108° |
| 2026-04-14 13:51 | 52.70859 | 2.17064 | 35200 ft | 503 kts | 108° |
| 2026-04-14 13:51 | 52.68305 | 2.27802 | 35201 ft | 502 kts | 108° |
| 2026-04-14 13:52 | 52.65744 | 2.38506 | 35196 ft | 502 kts | 108° |
| 2026-04-14 13:52 | 52.63176 | 2.49194 | 35206 ft | 502 kts | 108° |
| 2026-04-14 13:53 | 52.60604 | 2.59849 | 35225 ft | 500 kts | 109° |
| 2026-04-14 13:53 | 52.58031 | 2.70448 | 35224 ft | 497 kts | 109° |
| 2026-04-14 13:54 | 52.55462 | 2.80983 | 35219 ft | 496 kts | 109° |
| 2026-04-14 13:54 | 52.52354 | 2.91120 | 35217 ft | 497 kts | 117° |
| 2026-04-14 13:55 | 52.49019 | 3.01061 | 35240 ft | 497 kts | 117° |
| 2026-04-14 13:55 | 52.45699 | 3.10949 | 35232 ft | 494 kts | 117° |
| 2026-04-14 13:56 | 52.42388 | 3.20784 | 35237 ft | 492 kts | 117° |
| 2026-04-14 13:56 | 52.39094 | 3.30507 | 35233 ft | 491 kts | 117° |
| 2026-04-14 13:57 | 52.35777 | 3.40263 | 35221 ft | 490 kts | 118° |
| 2026-04-14 13:57 | 52.32459 | 3.49989 | 35241 ft | 489 kts | 118° |
| 2026-04-14 13:58 | 52.29133 | 3.59680 | 35241 ft | 488 kts | 118° |
| 2026-04-14 13:58 | 52.25812 | 3.69345 | 35238 ft | 487 kts | 118° |
| 2026-04-14 13:59 | 52.22489 | 3.78974 | 35234 ft | 487 kts | 118° |
| 2026-04-14 13:59 | 52.19154 | 3.88586 | 35226 ft | 487 kts | 118° |
| 2026-04-14 14:00 | 52.15819 | 3.98181 | 35231 ft | 486 kts | 118° |
| 2026-04-14 14:00 | 52.12473 | 4.07757 | 35230 ft | 487 kts | 118° |
| 2026-04-14 14:01 | 52.09114 | 4.17317 | 35220 ft | 487 kts | 118° |
| 2026-04-14 14:01 | 52.05773 | 4.26797 | 35220 ft | 486 kts | 118° |
| 2026-04-14 14:02 | 52.02391 | 4.36393 | 35226 ft | 486 kts | 118° |
| 2026-04-14 14:02 | 51.99039 | 4.45853 | 35225 ft | 486 kts | 118° |
| 2026-04-14 14:03 | 51.95636 | 4.55416 | 35208 ft | 486 kts | 118° |
| 2026-04-14 14:03 | 51.92242 | 4.64906 | 35212 ft | 486 kts | 118° |
| 2026-04-14 14:04 | 51.88847 | 4.74370 | 35206 ft | 486 kts | 118° |
| 2026-04-14 14:04 | 51.85446 | 4.83816 | 35212 ft | 486 kts | 118° |
| 2026-04-14 14:05 | 51.82032 | 4.93246 | 35216 ft | 486 kts | 118° |
| 2026-04-14 14:05 | 51.78617 | 5.02661 | 35222 ft | 485 kts | 118° |
| 2026-04-14 14:06 | 51.75197 | 5.12058 | 35219 ft | 485 kts | 118° |
| 2026-04-14 14:06 | 51.71792 | 5.21382 | 35214 ft | 485 kts | 118° |
| 2026-04-14 14:07 | 51.68354 | 5.30747 | 35202 ft | 485 kts | 118° |
| 2026-04-14 14:07 | 51.64908 | 5.40095 | 35225 ft | 485 kts | 118° |
| 2026-04-14 14:08 | 51.61464 | 5.49434 | 35224 ft | 485 kts | 118° |
| 2026-04-14 14:08 | 51.58009 | 5.58749 | 35226 ft | 485 kts | 118° |
| 2026-04-14 14:09 | 51.54548 | 5.68045 | 35230 ft | 485 kts | 118° |
| 2026-04-14 14:09 | 51.51077 | 5.77330 | 35225 ft | 485 kts | 119° |
| 2026-04-14 14:10 | 51.47606 | 5.86599 | 35227 ft | 484 kts | 119° |
| 2026-04-14 14:10 | 51.44134 | 5.95846 | 35226 ft | 484 kts | 119° |
| 2026-04-14 14:11 | 51.40651 | 6.05072 | 35216 ft | 484 kts | 119° |
| 2026-04-14 14:11 | 51.37154 | 6.14279 | 35218 ft | 484 kts | 119° |
| 2026-04-14 14:12 | 51.33656 | 6.23474 | 35232 ft | 483 kts | 119° |
| 2026-04-14 14:12 | 51.30159 | 6.32636 | 35242 ft | 482 kts | 119° |
| 2026-04-14 14:13 | 51.26663 | 6.41774 | 35241 ft | 481 kts | 119° |
| 2026-04-14 14:13 | 51.23165 | 6.50871 | 35238 ft | 481 kts | 120° |
| 2026-04-14 14:14 | 51.19661 | 6.59945 | 35231 ft | 480 kts | 120° |
| 2026-04-14 14:14 | 51.16154 | 6.68998 | 35241 ft | 480 kts | 120° |
| 2026-04-14 14:15 | 51.12649 | 6.78020 | 35231 ft | 478 kts | 120° |
| 2026-04-14 14:15 | 51.09143 | 6.87010 | 35232 ft | 477 kts | 120° |
| 2026-04-14 14:16 | 51.05633 | 6.95977 | 35227 ft | 477 kts | 120° |
| 2026-04-14 14:16 | 51.02147 | 7.04857 | 35224 ft | 476 kts | 120° |
| 2026-04-14 14:17 | 50.96885 | 7.18227 | 35239 ft | 475 kts | 120° |
| 2026-04-14 14:17 | 50.93369 | 7.27092 | 35237 ft | 475 kts | 120° |
| 2026-04-14 14:18 | 50.89845 | 7.35943 | 35233 ft | 474 kts | 121° |
| 2026-04-14 14:18 | 50.86325 | 7.44770 | 35226 ft | 474 kts | 121° |
| 2026-04-14 14:19 | 50.82796 | 7.53588 | 35223 ft | 474 kts | 121° |
| 2026-04-14 14:19 | 50.79272 | 7.62390 | 35222 ft | 473 kts | 121° |
| 2026-04-14 14:20 | 50.75748 | 7.71147 | 35215 ft | 472 kts | 121° |
| 2026-04-14 14:20 | 50.72220 | 7.79870 | 35208 ft | 471 kts | 121° |
| 2026-04-14 14:21 | 50.68690 | 7.88569 | 35200 ft | 471 kts | 121° |
| 2026-04-14 14:21 | 50.65159 | 7.97260 | 35210 ft | 471 kts | 122° |
| 2026-04-14 14:22 | 50.62216 | 8.04464 | 35207 ft | 470 kts | 122° |
| 2026-04-14 14:22 | 50.58443 | 8.12840 | 35198 ft | 469 kts | 128° |
| 2026-04-14 14:23 | 50.54361 | 8.20851 | 35197 ft | 469 kts | 128° |
| 2026-04-14 14:23 | 50.50287 | 8.28852 | 35197 ft | 469 kts | 128° |
| 2026-04-14 14:24 | 50.46210 | 8.36837 | 35202 ft | 468 kts | 128° |
| 2026-04-14 14:24 | 50.42133 | 8.44791 | 35203 ft | 467 kts | 128° |
| 2026-04-14 14:25 | 50.38054 | 8.52715 | 35201 ft | 466 kts | 129° |
| 2026-04-14 14:25 | 50.33619 | 8.60604 | 35200 ft | 466 kts | 133° |
| 2026-04-14 14:26 | 50.29281 | 8.67675 | 35195 ft | 466 kts | 134° |
| 2026-04-14 14:26 | 50.24790 | 8.74976 | 35197 ft | 466 kts | 133° |
| 2026-04-14 14:27 | 50.20349 | 8.82343 | 35196 ft | 466 kts | 133° |
| 2026-04-14 14:27 | 50.15929 | 8.89726 | 35195 ft | 465 kts | 133° |
| 2026-04-14 14:28 | 50.11497 | 8.97083 | 35193 ft | 465 kts | 133° |
| 2026-04-14 14:28 | 50.07052 | 9.04412 | 35190 ft | 465 kts | 133° |
| 2026-04-14 14:29 | 50.02605 | 9.11716 | 35186 ft | 465 kts | 133° |
| 2026-04-14 14:29 | 49.98160 | 9.19010 | 35200 ft | 464 kts | 133° |
| 2026-04-14 14:30 | 49.93762 | 9.26229 | 35201 ft | 462 kts | 133° |
| 2026-04-14 14:30 | 49.89335 | 9.33459 | 35198 ft | 462 kts | 133° |
| 2026-04-14 14:31 | 49.84895 | 9.40662 | 35192 ft | 461 kts | 133° |
| 2026-04-14 14:31 | 49.80460 | 9.47843 | 35187 ft | 461 kts | 133° |
| 2026-04-14 14:32 | 49.76023 | 9.55026 | 35200 ft | 461 kts | 134° |
| 2026-04-14 14:32 | 49.71594 | 9.62171 | 35200 ft | 460 kts | 134° |
| 2026-04-14 14:33 | 49.67159 | 9.69289 | 35200 ft | 459 kts | 134° |
| 2026-04-14 14:33 | 49.62733 | 9.76399 | 35204 ft | 459 kts | 134° |
| 2026-04-14 14:34 | 49.56092 | 9.87021 | 35201 ft | 458 kts | 134° |
| 2026-04-14 14:35 | 49.51665 | 9.94069 | 35204 ft | 457 kts | 134° |
| 2026-04-14 14:35 | 49.47247 | 10.01091 | 35208 ft | 456 kts | 135° |
| 2026-04-14 14:36 | 49.42834 | 10.08084 | 35205 ft | 455 kts | 135° |
| 2026-04-14 14:36 | 49.38422 | 10.15050 | 35203 ft | 455 kts | 135° |
| 2026-04-14 14:37 | 49.34009 | 10.22000 | 35203 ft | 455 kts | 135° |
| 2026-04-14 14:37 | 49.29593 | 10.28936 | 35203 ft | 454 kts | 135° |
| 2026-04-14 14:38 | 49.25180 | 10.35835 | 35205 ft | 453 kts | 135° |
| 2026-04-14 14:38 | 49.20747 | 10.42682 | 35216 ft | 453 kts | 136° |
| 2026-04-14 14:39 | 49.16232 | 10.49384 | 35225 ft | 452 kts | 137° |
| 2026-04-14 14:39 | 49.11695 | 10.56033 | 35220 ft | 452 kts | 137° |
| 2026-04-14 14:40 | 49.07168 | 10.62691 | 35215 ft | 452 kts | 136° |
| 2026-04-14 14:40 | 49.02650 | 10.69364 | 35208 ft | 452 kts | 136° |
| 2026-04-14 14:41 | 48.98138 | 10.76019 | 35208 ft | 451 kts | 137° |
| 2026-04-14 14:41 | 48.93633 | 10.82646 | 35200 ft | 450 kts | 137° |
| 2026-04-14 14:42 | 48.89120 | 10.89254 | 35188 ft | 450 kts | 137° |
| 2026-04-14 14:42 | 48.84604 | 10.95843 | 35179 ft | 450 kts | 137° |
| 2026-04-14 14:43 | 48.80087 | 11.02413 | 35195 ft | 449 kts | 137° |
| 2026-04-14 14:43 | 48.75576 | 11.08953 | 35203 ft | 448 kts | 137° |
| 2026-04-14 14:44 | 48.71084 | 11.15465 | 35209 ft | 446 kts | 137° |
| 2026-04-14 14:44 | 48.66602 | 11.21943 | 35207 ft | 445 kts | 136° |
| 2026-04-14 14:45 | 48.62898 | 11.29436 | 35193 ft | 447 kts | 118° |
| 2026-04-14 14:45 | 48.60067 | 11.37806 | 35193 ft | 447 kts | 118° |
| 2026-04-14 14:46 | 48.57207 | 11.46142 | 35193 ft | 447 kts | 119° |
| 2026-04-14 14:46 | 48.54336 | 11.54457 | 35187 ft | 446 kts | 119° |
| 2026-04-14 14:47 | 48.51471 | 11.62760 | 35168 ft | 446 kts | 119° |
| 2026-04-14 14:47 | 48.48603 | 11.71064 | 35166 ft | 446 kts | 119° |
| 2026-04-14 14:48 | 48.45730 | 11.79363 | 35154 ft | 447 kts | 119° |
| 2026-04-14 14:48 | 48.42852 | 11.87659 | 35156 ft | 447 kts | 119° |
| 2026-04-14 14:49 | 48.39959 | 11.95940 | 35156 ft | 447 kts | 120° |
| 2026-04-14 14:49 | 48.37062 | 12.04205 | 35158 ft | 447 kts | 120° |
| 2026-04-14 14:50 | 48.34157 | 12.12473 | 35153 ft | 447 kts | 120° |
| 2026-04-14 14:50 | 48.31268 | 12.20688 | 35147 ft | 448 kts | 120° |
| 2026-04-14 14:51 | 48.28346 | 12.28961 | 35144 ft | 448 kts | 120° |
| 2026-04-14 14:51 | 48.25415 | 12.37231 | 35148 ft | 449 kts | 120° |
| 2026-04-14 14:52 | 48.22471 | 12.45501 | 35152 ft | 449 kts | 120° |
| 2026-04-14 14:52 | 48.19526 | 12.53754 | 35153 ft | 449 kts | 120° |
| 2026-04-14 14:53 | 48.16573 | 12.62000 | 35151 ft | 449 kts | 120° |
| 2026-04-14 14:53 | 48.13467 | 12.70092 | 35152 ft | 447 kts | 128° |
| 2026-04-14 14:54 | 48.09505 | 12.77220 | 35162 ft | 445 kts | 132° |
| 2026-04-14 14:54 | 48.05499 | 12.84278 | 35160 ft | 445 kts | 132° |
| 2026-04-14 14:55 | 48.01499 | 12.91348 | 35160 ft | 445 kts | 133° |
| 2026-04-14 14:55 | 47.97496 | 12.98387 | 35164 ft | 444 kts | 133° |
| 2026-04-14 14:56 | 47.91497 | 13.08890 | 35169 ft | 443 kts | 133° |
| 2026-04-14 14:56 | 47.87496 | 13.15882 | 35172 ft | 443 kts | 133° |
| 2026-04-14 14:57 | 47.83488 | 13.22859 | 35167 ft | 443 kts | 133° |
| 2026-04-14 14:57 | 47.79487 | 13.29807 | 35173 ft | 442 kts | 133° |
| 2026-04-14 14:58 | 47.75482 | 13.36730 | 35176 ft | 441 kts | 133° |
| 2026-04-14 14:58 | 47.71478 | 13.43644 | 35172 ft | 441 kts | 133° |
| 2026-04-14 14:59 | 47.67502 | 13.50498 | 35168 ft | 441 kts | 133° |
| 2026-04-14 14:59 | 47.63486 | 13.57394 | 35156 ft | 441 kts | 133° |
| 2026-04-14 15:00 | 47.59476 | 13.64269 | 35158 ft | 441 kts | 133° |
| 2026-04-14 15:00 | 47.55463 | 13.71136 | 35155 ft | 441 kts | 133° |
| 2026-04-14 15:01 | 47.51439 | 13.77986 | 35150 ft | 440 kts | 133° |
| 2026-04-14 15:01 | 47.47423 | 13.84817 | 35144 ft | 440 kts | 133° |
| 2026-04-14 15:02 | 47.43407 | 13.91645 | 35133 ft | 440 kts | 134° |
| 2026-04-14 15:02 | 47.40071 | 13.97289 | 35132 ft | 439 kts | 134° |
| 2026-04-14 15:03 | 47.36049 | 14.04068 | 35136 ft | 438 kts | 134° |
| 2026-04-14 15:03 | 47.32039 | 14.10825 | 35112 ft | 438 kts | 134° |
| 2026-04-14 15:04 | 47.28027 | 14.17569 | 35113 ft | 437 kts | 134° |
| 2026-04-14 15:04 | 47.24010 | 14.24294 | 35106 ft | 437 kts | 135° |
| 2026-04-14 15:05 | 47.19989 | 14.31012 | 35108 ft | 437 kts | 135° |
| 2026-04-14 15:05 | 47.15971 | 14.37724 | 35107 ft | 437 kts | 135° |
| 2026-04-14 15:06 | 47.11949 | 14.44414 | 35099 ft | 437 kts | 135° |
| 2026-04-14 15:06 | 47.07920 | 14.51095 | 35085 ft | 437 kts | 134° |
| 2026-04-14 15:07 | 47.03890 | 14.57766 | 35086 ft | 437 kts | 135° |
| 2026-04-14 15:07 | 46.99864 | 14.64429 | 35077 ft | 436 kts | 135° |
| 2026-04-14 15:08 | 46.95835 | 14.71084 | 35083 ft | 437 kts | 135° |
| 2026-04-14 15:08 | 46.91788 | 14.77728 | 35101 ft | 437 kts | 135° |
| 2026-04-14 15:09 | 46.87739 | 14.84348 | 35100 ft | 437 kts | 135° |
| 2026-04-14 15:09 | 46.83682 | 14.90971 | 35087 ft | 437 kts | 135° |
| 2026-04-14 15:10 | 46.79631 | 14.97590 | 35095 ft | 437 kts | 135° |
| 2026-04-14 15:10 | 46.75573 | 15.04202 | 35103 ft | 438 kts | 135° |
| 2026-04-14 15:11 | 46.71500 | 15.10804 | 35109 ft | 437 kts | 135° |
| 2026-04-14 15:11 | 46.67429 | 15.17392 | 35095 ft | 437 kts | 135° |
| 2026-04-14 15:12 | 46.63378 | 15.23936 | 35096 ft | 438 kts | 135° |
| 2026-04-14 15:12 | 46.59290 | 15.30523 | 35094 ft | 439 kts | 135° |
| 2026-04-14 15:13 | 46.55193 | 15.37102 | 35095 ft | 439 kts | 135° |
| 2026-04-14 15:13 | 46.51101 | 15.43675 | 35100 ft | 438 kts | 135° |
| 2026-04-14 15:14 | 46.47005 | 15.50229 | 35093 ft | 438 kts | 135° |
| 2026-04-14 15:14 | 46.42901 | 15.56770 | 35095 ft | 439 kts | 135° |
| 2026-04-14 15:15 | 46.38793 | 15.63307 | 35083 ft | 439 kts | 135° |
| 2026-04-14 15:15 | 46.34685 | 15.69839 | 35085 ft | 439 kts | 135° |
| 2026-04-14 15:16 | 46.30572 | 15.76360 | 35085 ft | 439 kts | 135° |
| 2026-04-14 15:16 | 46.26446 | 15.82863 | 35085 ft | 438 kts | 136° |
| 2026-04-14 15:17 | 46.22198 | 15.89151 | 35090 ft | 437 kts | 139° |
| 2026-04-14 15:17 | 46.17843 | 15.95254 | 35084 ft | 436 kts | 139° |
| 2026-04-14 15:18 | 46.13486 | 16.01348 | 35087 ft | 436 kts | 139° |
| 2026-04-14 15:18 | 46.09154 | 16.07482 | 35088 ft | 436 kts | 139° |
| 2026-04-14 15:19 | 46.04843 | 16.13630 | 35076 ft | 436 kts | 139° |
| 2026-04-14 15:19 | 46.00524 | 16.19761 | 35076 ft | 436 kts | 139° |
| 2026-04-14 15:20 | 45.96199 | 16.25861 | 35077 ft | 435 kts | 139° |
| 2026-04-14 15:20 | 45.91862 | 16.31961 | 35164 ft | 437 kts | 139° |
| 2026-04-14 15:21 | 45.89685 | 16.35019 | 35282 ft | 438 kts | 139° |
| 2026-04-14 15:21 | 45.87503 | 16.38084 | 35399 ft | 439 kts | 138° |
| 2026-04-14 15:21 | 45.85315 | 16.41152 | 35522 ft | 441 kts | 139° |
| 2026-04-14 15:21 | 45.83114 | 16.44234 | 35642 ft | 443 kts | 139° |
| 2026-04-14 15:22 | 45.80909 | 16.47320 | 35773 ft | 443 kts | 138° |
| 2026-04-14 15:22 | 45.78705 | 16.50406 | 35899 ft | 444 kts | 138° |
| 2026-04-14 15:22 | 45.76495 | 16.53493 | 36028 ft | 444 kts | 138° |
| 2026-04-14 15:22 | 45.74285 | 16.56578 | 36150 ft | 444 kts | 138° |
| 2026-04-14 15:23 | 45.72071 | 16.59665 | 36276 ft | 444 kts | 138° |
| 2026-04-14 15:23 | 45.69856 | 16.62749 | 36405 ft | 444 kts | 138° |
| 2026-04-14 15:23 | 45.67637 | 16.65831 | 36534 ft | 445 kts | 139° |
| 2026-04-14 15:23 | 45.65414 | 16.68912 | 36655 ft | 446 kts | 138° |
| 2026-04-14 15:24 | 45.63181 | 16.72002 | 36786 ft | 447 kts | 138° |
| 2026-04-14 15:24 | 45.60949 | 16.75095 | 36926 ft | 447 kts | 138° |
| 2026-04-14 15:24 | 45.58713 | 16.78188 | 37058 ft | 448 kts | 138° |
| 2026-04-14 15:24 | 45.56472 | 16.81278 | 37080 ft | 448 kts | 138° |
| 2026-04-14 15:25 | 45.51987 | 16.87462 | 37074 ft | 448 kts | 139° |
| 2026-04-14 15:25 | 45.47500 | 16.93632 | 37074 ft | 448 kts | 139° |
| 2026-04-14 15:26 | 45.43008 | 16.99804 | 37073 ft | 449 kts | 139° |
| 2026-04-14 15:26 | 45.38507 | 17.05967 | 37073 ft | 449 kts | 139° |
| 2026-04-14 15:27 | 45.34032 | 17.12076 | 37067 ft | 449 kts | 139° |
| 2026-04-14 15:27 | 45.29520 | 17.18209 | 37069 ft | 449 kts | 139° |
| 2026-04-14 15:28 | 45.25009 | 17.24347 | 37050 ft | 449 kts | 139° |
| 2026-04-14 15:28 | 45.20495 | 17.30484 | 37049 ft | 449 kts | 139° |
| 2026-04-14 15:29 | 45.15972 | 17.36609 | 37051 ft | 450 kts | 139° |
| 2026-04-14 15:29 | 45.11498 | 17.42810 | 37054 ft | 451 kts | 136° |
| 2026-04-14 15:30 | 45.07328 | 17.49459 | 37057 ft | 452 kts | 133° |
| 2026-04-14 15:30 | 45.03260 | 17.56257 | 37047 ft | 453 kts | 133° |
| 2026-04-14 15:31 | 44.99117 | 17.62965 | 37046 ft | 453 kts | 134° |
| 2026-04-14 15:31 | 44.94914 | 17.69599 | 37046 ft | 453 kts | 134° |
| 2026-04-14 15:32 | 44.90697 | 17.76223 | 37050 ft | 453 kts | 134° |
| 2026-04-14 15:32 | 44.86492 | 17.82858 | 37045 ft | 454 kts | 134° |
| 2026-04-14 15:33 | 44.82284 | 17.89494 | 37046 ft | 454 kts | 134° |
| 2026-04-14 15:33 | 44.78067 | 17.96121 | 37049 ft | 454 kts | 134° |
| 2026-04-14 15:34 | 44.73835 | 18.02738 | 37048 ft | 455 kts | 134° |
| 2026-04-14 15:34 | 44.69606 | 18.09358 | 37036 ft | 454 kts | 134° |
| 2026-04-14 15:35 | 44.65379 | 18.15961 | 37036 ft | 454 kts | 134° |
| 2026-04-14 15:35 | 44.61147 | 18.22545 | 37038 ft | 454 kts | 134° |
| 2026-04-14 15:36 | 44.56908 | 18.29123 | 37031 ft | 454 kts | 134° |
| 2026-04-14 15:36 | 44.52666 | 18.35693 | 37036 ft | 454 kts | 134° |
| 2026-04-14 15:37 | 44.48419 | 18.42266 | 37037 ft | 455 kts | 134° |
| 2026-04-14 15:37 | 44.44163 | 18.48835 | 37039 ft | 455 kts | 134° |
| 2026-04-14 15:38 | 44.39928 | 18.55343 | 37046 ft | 455 kts | 135° |
| 2026-04-14 15:38 | 44.35662 | 18.61893 | 37056 ft | 456 kts | 135° |
| 2026-04-14 15:39 | 44.31398 | 18.68433 | 37052 ft | 455 kts | 135° |
| 2026-04-14 15:39 | 44.27122 | 18.74960 | 37040 ft | 455 kts | 135° |
| 2026-04-14 15:40 | 44.22846 | 18.81479 | 37043 ft | 455 kts | 135° |
| 2026-04-14 15:40 | 44.18563 | 18.87980 | 37040 ft | 455 kts | 135° |
| 2026-04-14 15:41 | 44.14277 | 18.94474 | 37032 ft | 455 kts | 135° |
| 2026-04-14 15:41 | 44.09987 | 19.00968 | 37042 ft | 456 kts | 135° |
| 2026-04-14 15:42 | 44.05693 | 19.07467 | 37059 ft | 456 kts | 135° |
| 2026-04-14 15:42 | 44.01396 | 19.13947 | 37051 ft | 456 kts | 135° |
| 2026-04-14 15:43 | 43.97095 | 19.20416 | 37045 ft | 456 kts | 135° |
| 2026-04-14 15:43 | 43.92788 | 19.26878 | 37046 ft | 456 kts | 135° |
| 2026-04-14 15:44 | 43.88466 | 19.33341 | 37051 ft | 456 kts | 135° |
| 2026-04-14 15:44 | 43.84174 | 19.39742 | 37055 ft | 456 kts | 135° |
| 2026-04-14 15:45 | 43.79852 | 19.46179 | 37055 ft | 456 kts | 135° |
| 2026-04-14 15:45 | 43.75525 | 19.52609 | 37048 ft | 457 kts | 136° |
| 2026-04-14 15:46 | 43.71193 | 19.59032 | 37055 ft | 457 kts | 136° |
| 2026-04-14 15:46 | 43.66859 | 19.65452 | 37058 ft | 457 kts | 136° |
| 2026-04-14 15:47 | 43.63224 | 19.70814 | 37046 ft | 456 kts | 136° |
| 2026-04-14 15:47 | 43.58875 | 19.77206 | 37051 ft | 457 kts | 136° |
| 2026-04-14 15:48 | 43.54525 | 19.83592 | 37048 ft | 457 kts | 136° |
| 2026-04-14 15:48 | 43.50204 | 19.89939 | 37051 ft | 457 kts | 136° |
| 2026-04-14 15:49 | 43.45849 | 19.96312 | 37057 ft | 457 kts | 137° |
| 2026-04-14 15:49 | 43.41483 | 20.02681 | 37054 ft | 457 kts | 137° |
| 2026-04-14 15:50 | 43.37114 | 20.09040 | 37051 ft | 458 kts | 137° |
| 2026-04-14 15:50 | 43.32746 | 20.15407 | 37047 ft | 458 kts | 137° |
| 2026-04-14 15:51 | 43.28369 | 20.21765 | 37051 ft | 458 kts | 137° |
| 2026-04-14 15:51 | 43.23974 | 20.28116 | 37058 ft | 460 kts | 137° |
| 2026-04-14 15:52 | 43.19596 | 20.34440 | 37061 ft | 460 kts | 137° |
| 2026-04-14 15:52 | 43.15185 | 20.40786 | 37070 ft | 460 kts | 137° |
| 2026-04-14 15:53 | 43.10763 | 20.47133 | 37063 ft | 460 kts | 137° |
| 2026-04-14 15:53 | 43.06344 | 20.53475 | 37061 ft | 460 kts | 138° |
| 2026-04-14 15:54 | 42.99693 | 20.62958 | 37073 ft | 460 kts | 139° |
| 2026-04-14 15:55 | 42.95129 | 20.69076 | 37078 ft | 459 kts | 141° |
| 2026-04-14 15:55 | 42.90466 | 20.75046 | 37091 ft | 460 kts | 141° |
| 2026-04-14 15:56 | 42.85807 | 20.81032 | 37081 ft | 460 kts | 141° |
| 2026-04-14 15:56 | 42.81175 | 20.87069 | 37077 ft | 461 kts | 141° |
| 2026-04-14 15:57 | 42.76542 | 20.93109 | 37085 ft | 461 kts | 141° |
| 2026-04-14 15:57 | 42.71891 | 20.99127 | 37087 ft | 462 kts | 141° |
| 2026-04-14 15:58 | 42.67265 | 21.05096 | 37088 ft | 462 kts | 141° |
| 2026-04-14 15:58 | 42.62603 | 21.11102 | 37079 ft | 462 kts | 141° |
| 2026-04-14 15:59 | 42.57947 | 21.17104 | 37086 ft | 461 kts | 141° |
| 2026-04-14 15:59 | 42.53289 | 21.23089 | 37096 ft | 461 kts | 141° |
| 2026-04-14 16:00 | 42.48629 | 21.29059 | 37105 ft | 461 kts | 142° |
| 2026-04-14 16:00 | 42.43964 | 21.35016 | 37114 ft | 461 kts | 142° |
| 2026-04-14 16:01 | 42.39300 | 21.40970 | 37126 ft | 461 kts | 142° |
| 2026-04-14 16:01 | 42.34635 | 21.46915 | 37117 ft | 461 kts | 142° |
| 2026-04-14 16:02 | 42.29976 | 21.52851 | 37124 ft | 460 kts | 142° |
| 2026-04-14 16:02 | 42.25308 | 21.58759 | 37127 ft | 459 kts | 142° |
| 2026-04-14 16:03 | 42.20684 | 21.64634 | 37133 ft | 460 kts | 141° |
| 2026-04-14 16:03 | 42.16124 | 21.70697 | 37133 ft | 461 kts | 140° |
| 2026-04-14 16:04 | 42.11597 | 21.76804 | 37131 ft | 460 kts | 140° |
| 2026-04-14 16:04 | 42.07048 | 21.82864 | 37104 ft | 460 kts | 141° |
| 2026-04-14 16:05 | 42.02474 | 21.88885 | 37115 ft | 460 kts | 141° |
| 2026-04-14 16:05 | 41.97897 | 21.94902 | 37128 ft | 460 kts | 141° |
| 2026-04-14 16:06 | 41.93325 | 22.00914 | 37133 ft | 460 kts | 141° |
| 2026-04-14 16:06 | 41.88749 | 22.06924 | 37146 ft | 460 kts | 141° |
| 2026-04-14 16:07 | 41.84171 | 22.12928 | 37131 ft | 460 kts | 141° |
| 2026-04-14 16:07 | 41.79615 | 22.18880 | 37119 ft | 461 kts | 141° |
| 2026-04-14 16:08 | 41.75014 | 22.24876 | 37132 ft | 462 kts | 141° |
| 2026-04-14 16:08 | 41.70403 | 22.30863 | 37138 ft | 462 kts | 141° |
| 2026-04-14 16:09 | 41.65790 | 22.36858 | 37156 ft | 463 kts | 141° |
| 2026-04-14 16:09 | 41.61168 | 22.42843 | 37159 ft | 462 kts | 141° |
| 2026-04-14 16:10 | 41.56543 | 22.48820 | 37138 ft | 463 kts | 142° |
| 2026-04-14 16:10 | 41.51911 | 22.54802 | 37144 ft | 464 kts | 142° |
| 2026-04-14 16:11 | 41.47265 | 22.60781 | 37159 ft | 464 kts | 142° |
| 2026-04-14 16:11 | 41.42614 | 22.66755 | 37167 ft | 465 kts | 142° |
| 2026-04-14 16:12 | 41.37957 | 22.72727 | 37177 ft | 465 kts | 142° |
| 2026-04-14 16:12 | 41.33297 | 22.78709 | 37169 ft | 466 kts | 140° |
| 2026-04-14 16:13 | 41.29030 | 22.85207 | 37163 ft | 470 kts | 136° |
| 2026-04-14 16:13 | 41.24759 | 22.91803 | 37169 ft | 471 kts | 137° |
| 2026-04-14 16:14 | 41.20483 | 22.98398 | 37178 ft | 471 kts | 137° |
| 2026-04-14 16:14 | 41.16198 | 23.04992 | 37182 ft | 472 kts | 137° |
| 2026-04-14 16:15 | 41.11911 | 23.11577 | 37182 ft | 472 kts | 137° |
| 2026-04-14 16:15 | 41.07616 | 23.18150 | 37186 ft | 472 kts | 137° |
| 2026-04-14 16:16 | 41.03309 | 23.24718 | 37192 ft | 472 kts | 137° |
| 2026-04-14 16:16 | 40.99005 | 23.31276 | 37189 ft | 472 kts | 138° |
| 2026-04-14 16:17 | 40.94706 | 23.37835 | 37203 ft | 471 kts | 137° |
| 2026-04-14 16:17 | 40.90406 | 23.44379 | 37197 ft | 471 kts | 137° |
| 2026-04-14 16:18 | 40.86092 | 23.50906 | 37199 ft | 472 kts | 138° |
| 2026-04-14 16:18 | 40.81767 | 23.57441 | 37204 ft | 472 kts | 138° |
| 2026-04-14 16:19 | 40.77444 | 23.63963 | 37207 ft | 472 kts | 138° |
| 2026-04-14 16:19 | 40.73114 | 23.70476 | 37208 ft | 472 kts | 138° |
| 2026-04-14 16:20 | 40.68783 | 23.76981 | 37188 ft | 472 kts | 138° |
| 2026-04-14 16:20 | 40.64446 | 23.83492 | 37194 ft | 473 kts | 139° |
| 2026-04-14 16:21 | 40.60094 | 23.89995 | 37198 ft | 473 kts | 139° |
| 2026-04-14 16:21 | 40.55733 | 23.96502 | 37201 ft | 474 kts | 139° |
| 2026-04-14 16:22 | 40.51396 | 24.02957 | 37206 ft | 474 kts | 139° |
| 2026-04-14 16:22 | 40.47030 | 24.09449 | 37196 ft | 474 kts | 139° |
| 2026-04-14 16:23 | 40.42661 | 24.15946 | 37195 ft | 475 kts | 139° |
| 2026-04-14 16:23 | 40.38278 | 24.22436 | 37185 ft | 475 kts | 139° |
| 2026-04-14 16:24 | 40.33889 | 24.28911 | 37198 ft | 475 kts | 139° |
| 2026-04-14 16:24 | 40.29495 | 24.35379 | 37201 ft | 475 kts | 139° |
| 2026-04-14 16:25 | 40.25094 | 24.41840 | 37192 ft | 475 kts | 139° |
| 2026-04-14 16:25 | 40.20696 | 24.48293 | 37193 ft | 475 kts | 139° |
| 2026-04-14 16:26 | 40.16300 | 24.54737 | 37195 ft | 475 kts | 139° |
| 2026-04-14 16:26 | 40.11895 | 24.61182 | 37196 ft | 475 kts | 139° |
| 2026-04-14 16:27 | 40.07487 | 24.67611 | 37197 ft | 475 kts | 139° |
| 2026-04-14 16:27 | 40.03078 | 24.74028 | 37196 ft | 475 kts | 139° |
| 2026-04-14 16:28 | 39.98663 | 24.80441 | 37195 ft | 475 kts | 139° |
| 2026-04-14 16:28 | 39.94275 | 24.86800 | 37199 ft | 475 kts | 139° |
| 2026-04-14 16:29 | 39.89850 | 24.93185 | 37197 ft | 475 kts | 139° |
| 2026-04-14 16:29 | 39.85418 | 24.99571 | 37200 ft | 475 kts | 139° |
| 2026-04-14 16:30 | 39.80987 | 25.05957 | 37176 ft | 476 kts | 139° |
| 2026-04-14 16:30 | 39.76544 | 25.12343 | 37170 ft | 476 kts | 139° |
| 2026-04-14 16:31 | 39.72095 | 25.18724 | 37181 ft | 476 kts | 139° |
| 2026-04-14 16:31 | 39.67646 | 25.25105 | 37187 ft | 476 kts | 139° |
| 2026-04-14 16:32 | 39.63193 | 25.31468 | 37186 ft | 476 kts | 139° |
| 2026-04-14 16:32 | 39.58729 | 25.37824 | 37182 ft | 477 kts | 139° |
| 2026-04-14 16:33 | 39.54254 | 25.44176 | 37186 ft | 478 kts | 139° |
| 2026-04-14 16:33 | 39.49768 | 25.50537 | 37168 ft | 478 kts | 140° |
| 2026-04-14 16:34 | 39.45311 | 25.56856 | 37178 ft | 478 kts | 140° |
| 2026-04-14 16:34 | 39.40826 | 25.63206 | 37193 ft | 478 kts | 140° |
| 2026-04-14 16:35 | 39.36328 | 25.69545 | 37182 ft | 479 kts | 140° |
| 2026-04-14 16:35 | 39.31818 | 25.75892 | 37190 ft | 480 kts | 140° |
| 2026-04-14 16:36 | 39.27305 | 25.82239 | 37185 ft | 480 kts | 140° |
| 2026-04-14 16:36 | 39.23538 | 25.87515 | 37200 ft | 481 kts | 140° |
| 2026-04-14 16:37 | 39.19007 | 25.93849 | 37184 ft | 481 kts | 140° |
| 2026-04-14 16:37 | 39.14470 | 26.00187 | 37185 ft | 482 kts | 140° |
| 2026-04-14 16:38 | 39.09923 | 26.06537 | 37191 ft | 482 kts | 140° |
| 2026-04-14 16:38 | 39.05364 | 26.12880 | 37197 ft | 483 kts | 140° |
| 2026-04-14 16:39 | 39.00797 | 26.19213 | 37195 ft | 483 kts | 140° |
| 2026-04-14 16:39 | 38.96233 | 26.25540 | 37206 ft | 483 kts | 140° |
| 2026-04-14 16:40 | 38.91656 | 26.31865 | 37193 ft | 483 kts | 140° |
| 2026-04-14 16:40 | 38.87100 | 26.38224 | 37181 ft | 487 kts | 135° |
| 2026-04-14 16:41 | 38.83611 | 26.45726 | 37186 ft | 501 kts | 115° |
| 2026-04-14 16:41 | 38.81970 | 26.54477 | 37185 ft | 508 kts | 101° |
| 2026-04-14 16:42 | 38.80878 | 26.63433 | 37176 ft | 509 kts | 101° |
| 2026-04-14 16:42 | 38.79762 | 26.72411 | 37188 ft | 510 kts | 101° |
| 2026-04-14 16:43 | 38.78639 | 26.81401 | 37196 ft | 511 kts | 101° |
| 2026-04-14 16:43 | 38.77471 | 26.90382 | 37188 ft | 510 kts | 105° |
| 2026-04-14 16:44 | 38.75055 | 26.98752 | 37192 ft | 501 kts | 123° |
| 2026-04-14 16:44 | 38.71169 | 27.06040 | 37191 ft | 494 kts | 133° |
| 2026-04-14 16:45 | 38.64966 | 27.16563 | 37179 ft | 494 kts | 133° |
| 2026-04-14 16:45 | 38.60832 | 27.23588 | 37172 ft | 494 kts | 133° |
| 2026-04-14 16:46 | 38.56691 | 27.30607 | 37177 ft | 495 kts | 133° |
| 2026-04-14 16:46 | 38.52529 | 27.37616 | 37184 ft | 496 kts | 133° |
| 2026-04-14 16:47 | 38.48358 | 27.44623 | 37193 ft | 496 kts | 133° |
| 2026-04-14 16:47 | 38.44190 | 27.51633 | 37185 ft | 496 kts | 133° |
| 2026-04-14 16:48 | 38.40018 | 27.58640 | 37191 ft | 496 kts | 133° |
| 2026-04-14 16:48 | 38.35834 | 27.65626 | 37194 ft | 496 kts | 133° |
| 2026-04-14 16:49 | 38.31653 | 27.72609 | 37185 ft | 495 kts | 134° |
| 2026-04-14 16:49 | 38.27407 | 27.79491 | 37188 ft | 490 kts | 140° |
| 2026-04-14 16:50 | 38.22296 | 27.84949 | 37191 ft | 475 kts | 153° |
| 2026-04-14 16:50 | 38.16887 | 27.89790 | 37190 ft | 476 kts | 153° |
| 2026-04-14 16:51 | 38.11516 | 27.94615 | 37182 ft | 476 kts | 153° |
| 2026-04-14 16:51 | 38.08790 | 27.97053 | 36315 ft | 484 kts | 153° |
| 2026-04-14 16:51 | 38.06000 | 27.99536 | 35322 ft | 492 kts | 153° |
| 2026-04-14 16:52 | 38.03187 | 28.02041 | 34431 ft | 497 kts | 152° |
| 2026-04-14 16:52 | 38.00359 | 28.04565 | 33808 ft | 494 kts | 152° |
| 2026-04-14 16:52 | 37.97567 | 28.07064 | 33172 ft | 490 kts | 152° |
| 2026-04-14 16:52 | 37.94792 | 28.09542 | 32558 ft | 486 kts | 151° |
| 2026-04-14 16:53 | 37.92036 | 28.11997 | 31931 ft | 483 kts | 151° |
| 2026-04-14 16:53 | 37.89293 | 28.14431 | 31327 ft | 479 kts | 151° |
| 2026-04-14 16:53 | 37.86572 | 28.16837 | 30735 ft | 475 kts | 151° |
| 2026-04-14 16:53 | 37.83871 | 28.19228 | 30117 ft | 472 kts | 151° |
| 2026-04-14 16:54 | 37.81190 | 28.21604 | 29498 ft | 468 kts | 151° |
| 2026-04-14 16:54 | 37.78541 | 28.23956 | 28932 ft | 463 kts | 151° |
| 2026-04-14 16:54 | 37.75915 | 28.26286 | 28364 ft | 458 kts | 150° |
| 2026-04-14 16:54 | 37.73325 | 28.28585 | 27820 ft | 453 kts | 150° |
| 2026-04-14 16:55 | 37.70761 | 28.30854 | 27289 ft | 447 kts | 150° |
| 2026-04-14 16:55 | 37.68226 | 28.33094 | 26746 ft | 443 kts | 150° |
| 2026-04-14 16:55 | 37.65715 | 28.35306 | 26237 ft | 437 kts | 150° |
| 2026-04-14 16:55 | 37.63236 | 28.37487 | 25725 ft | 432 kts | 150° |
| 2026-04-14 16:56 | 37.60781 | 28.39646 | 25235 ft | 427 kts | 150° |
| 2026-04-14 16:56 | 37.58357 | 28.41778 | 24745 ft | 423 kts | 150° |
| 2026-04-14 16:56 | 37.55955 | 28.43889 | 24259 ft | 419 kts | 151° |
| 2026-04-14 16:56 | 37.53576 | 28.45975 | 23757 ft | 415 kts | 150° |
| 2026-04-14 16:57 | 37.51242 | 28.48013 | 23196 ft | 412 kts | 151° |
| 2026-04-14 16:57 | 37.48793 | 28.49759 | 22725 ft | 399 kts | 162° |
| 2026-04-14 16:57 | 37.46213 | 28.50884 | 22266 ft | 387 kts | 171° |
| 2026-04-14 16:57 | 37.43616 | 28.51693 | 21812 ft | 383 kts | 172° |
| 2026-04-14 16:58 | 37.41044 | 28.52491 | 21352 ft | 380 kts | 171° |
| 2026-04-14 16:58 | 37.38490 | 28.53285 | 20896 ft | 377 kts | 171° |
| 2026-04-14 16:58 | 37.35947 | 28.54077 | 20439 ft | 375 kts | 171° |
| 2026-04-14 16:58 | 37.33421 | 28.54862 | 19973 ft | 373 kts | 171° |
| 2026-04-14 16:59 | 37.30907 | 28.55643 | 19505 ft | 371 kts | 171° |
| 2026-04-14 16:59 | 37.28405 | 28.56421 | 19043 ft | 370 kts | 171° |
| 2026-04-14 16:59 | 37.25909 | 28.57195 | 18583 ft | 369 kts | 171° |
| 2026-04-14 16:59 | 37.23434 | 28.57963 | 18081 ft | 360 kts | 171° |
| 2026-04-14 17:00 | 37.21049 | 28.58709 | 17627 ft | 346 kts | 170° |
| 2026-04-14 17:00 | 37.18732 | 28.59433 | 17158 ft | 342 kts | 170° |
| 2026-04-14 17:00 | 37.16448 | 28.60146 | 16934 ft | 330 kts | 169° |
| 2026-04-14 17:00 | 37.14376 | 28.61287 | 16532 ft | 326 kts | 146° |
| 2026-04-14 17:01 | 37.12876 | 28.63387 | 16270 ft | 327 kts | 120° |
| 2026-04-14 17:01 | 37.12209 | 28.66089 | 16028 ft | 327 kts | 92° |
| 2026-04-14 17:01 | 37.12401 | 28.68914 | 15671 ft | 327 kts | 79° |
| 2026-04-14 17:01 | 37.12785 | 28.71717 | 15283 ft | 324 kts | 78° |
| 2026-04-14 17:02 | 37.13183 | 28.74482 | 14744 ft | 321 kts | 78° |
| 2026-04-14 17:02 | 37.13582 | 28.77214 | 14354 ft | 318 kts | 78° |
| 2026-04-14 17:02 | 37.13970 | 28.79883 | 13987 ft | 313 kts | 78° |
| 2026-04-14 17:02 | 37.14352 | 28.82550 | 13418 ft | 309 kts | 78° |
| 2026-04-14 17:03 | 37.14724 | 28.85178 | 12930 ft | 303 kts | 78° |
| 2026-04-14 17:03 | 37.15087 | 28.87774 | 12511 ft | 303 kts | 79° |
| 2026-04-14 17:03 | 37.15448 | 28.90371 | 12119 ft | 299 kts | 79° |
| 2026-04-14 17:03 | 37.15580 | 28.92954 | 11569 ft | 296 kts | 95° |
| 2026-04-14 17:04 | 37.15096 | 28.95431 | 11087 ft | 292 kts | 113° |
| 2026-04-14 17:04 | 37.14063 | 28.97587 | 10637 ft | 288 kts | 131° |
| 2026-04-14 17:04 | 37.12624 | 28.99337 | 10221 ft | 290 kts | 139° |
| 2026-04-14 17:04 | 37.11130 | 29.01009 | 9792 ft | 285 kts | 139° |
| 2026-04-14 17:05 | 37.09660 | 29.02650 | 9360 ft | 282 kts | 139° |
| 2026-04-14 17:05 | 37.08187 | 29.04224 | 9006 ft | 271 kts | 147° |
| 2026-04-14 17:05 | 37.06525 | 29.05099 | 8925 ft | 250 kts | 172° |
| 2026-04-14 17:05 | 37.04781 | 29.05131 | 8755 ft | 255 kts | 193° |
| 2026-04-14 17:06 | 37.03136 | 29.04301 | 8130 ft | 256 kts | 212° |
| 2026-04-14 17:06 | 37.01613 | 29.03157 | 7601 ft | 254 kts | 212° |
| 2026-04-14 17:06 | 37.00096 | 29.02033 | 7090 ft | 253 kts | 211° |
| 2026-04-14 17:06 | 36.98586 | 29.00920 | 6582 ft | 251 kts | 212° |
| 2026-04-14 17:07 | 36.97094 | 28.99826 | 6137 ft | 245 kts | 211° |
| 2026-04-14 17:07 | 36.95645 | 28.98764 | 5746 ft | 240 kts | 211° |
| 2026-04-14 17:07 | 36.94201 | 28.97696 | 5351 ft | 242 kts | 213° |
| 2026-04-14 17:07 | 36.92886 | 28.96382 | 4946 ft | 243 kts | 220° |
| 2026-04-14 17:08 | 36.91613 | 28.95030 | 4546 ft | 236 kts | 220° |
| 2026-04-14 17:08 | 36.90383 | 28.93725 | 4178 ft | 229 kts | 220° |
| 2026-04-14 17:08 | 36.89187 | 28.92454 | 3815 ft | 223 kts | 220° |
| 2026-04-14 17:08 | 36.88047 | 28.91238 | 3493 ft | 207 kts | 220° |
| 2026-04-14 17:09 | 36.86971 | 28.90092 | 3394 ft | 201 kts | 220° |
| 2026-04-14 17:09 | 36.85907 | 28.88967 | 3300 ft | 199 kts | 217° |
| 2026-04-14 17:09 | 36.84735 | 28.88052 | 3166 ft | 200 kts | 210° |
| 2026-04-14 17:09 | 36.83540 | 28.87183 | 2828 ft | 197 kts | 210° |
| 2026-04-14 17:10 | 36.82357 | 28.86322 | 2494 ft | 196 kts | 210° |
| 2026-04-14 17:10 | 36.81192 | 28.85475 | 2210 ft | 191 kts | 210° |
| 2026-04-14 17:10 | 36.80073 | 28.84660 | 1938 ft | 186 kts | 210° |
| 2026-04-14 17:10 | 36.78969 | 28.83857 | 1693 ft | 180 kts | 210° |
| 2026-04-14 17:11 | 36.77913 | 28.83088 | 1422 ft | 173 kts | 209° |
| 2026-04-14 17:11 | 36.76893 | 28.82345 | 1147 ft | 166 kts | 208° |
| 2026-04-14 17:11 | 36.75917 | 28.81631 | 874 ft | 159 kts | 210° |
| 2026-04-14 17:11 | 36.74981 | 28.80945 | 631 ft | 153 kts | 210° |
| 2026-04-14 17:12 | 36.74074 | 28.80283 | 396 ft | 149 kts | 210° |
| 2026-04-14 17:12 | 36.73116 | 28.79833 | 192 ft | 147 kts | 189° |
| 2026-04-14 17:12 | 36.72128 | 28.79526 | 17 ft | 144 kts | 195° |
| 2026-04-14 17:12 | 36.71179 | 28.79208 | 12 ft | 129 kts | 197° |
| 2026-04-14 17:13 | 36.70491 | 28.78974 | 13 ft | 78 kts | 196° |
| 2026-04-14 17:13 | 36.70160 | 28.78861 | 13 ft | 19 kts | 197° |
| 2026-04-14 17:13 | 36.70090 | 28.78824 | 15 ft | 10 kts | 218° |
| 2026-04-14 17:13 | 36.70057 | 28.78754 | 13 ft | 12 kts | 258° |
| 2026-04-14 17:14 | 36.70096 | 28.78627 | 13 ft | 14 kts | 343° |
| 2026-04-14 17:14 | 36.70165 | 28.78647 | 13 ft | 10 kts | 13° |
| 2026-04-14 17:14 | 36.70225 | 28.78667 | 13 ft | 8 kts | 15° |
| 2026-04-14 17:14 | 36.70277 | 28.78685 | 13 ft | 7 kts | 15° |
| 2026-04-14 17:15 | 36.70320 | 28.78700 | 13 ft | 6 kts | 15° |
| 2026-04-14 17:15 | 36.70354 | 28.78711 | 13 ft | 4 kts | 15° |
| 2026-04-14 17:15 | 36.70379 | 28.78720 | 13 ft | 3 kts | 15° |
| 2026-04-14 17:15 | 36.70397 | 28.78726 | 13 ft | 2 kts | 15° |
| 2026-04-14 17:16 | 36.70408 | 28.78729 | 13 ft | 1 kts | 15° |
| 2026-04-14 17:16 | 36.70446 | 28.78742 | 13 ft | 11 kts | 14° |
| 2026-04-14 17:16 | 36.70549 | 28.78775 | 13 ft | 18 kts | 14° |
| 2026-04-14 17:16 | 36.70673 | 28.78819 | 13 ft | 19 kts | 15° |
| 2026-04-14 17:17 | 36.70807 | 28.78865 | 13 ft | 21 kts | 15° |
| 2026-04-14 17:17 | 36.70952 | 28.78915 | 13 ft | 22 kts | 15° |
| 2026-04-14 17:17 | 36.71107 | 28.78967 | 13 ft | 24 kts | 15° |
| 2026-04-14 17:17 | 36.71270 | 28.79022 | 13 ft | 25 kts | 15° |
| 2026-04-14 17:18 | 36.71443 | 28.79082 | 12 ft | 26 kts | 15° |
| 2026-04-14 17:18 | 36.71624 | 28.79143 | 12 ft | 25 kts | 14° |
| 2026-04-14 17:18 | 36.71739 | 28.79185 | 12 ft | 18 kts | 16° |
| 2026-04-14 17:18 | 36.71864 | 28.79225 | 12 ft | 20 kts | 11° |
| 2026-04-14 17:19 | 36.72002 | 28.79272 | 12 ft | 21 kts | 15° |
| 2026-04-14 17:19 | 36.72145 | 28.79320 | 12 ft | 17 kts | 15° |
| 2026-04-14 17:19 | 36.72238 | 28.79354 | 12 ft | 12 kts | 6° |
| 2026-04-14 17:19 | 36.72285 | 28.79285 | 12 ft | 11 kts | 284° |
| 2026-04-14 17:20 | 36.72302 | 28.79199 | 12 ft | 9 kts | 279° |
| 2026-04-14 17:20 | 36.72312 | 28.79124 | 12 ft | 8 kts | 285° |
| 2026-04-14 17:20 | 36.72322 | 28.79079 | 12 ft | 5 kts | 285° |
| 2026-04-14 17:20 | 36.72325 | 28.79064 | 12 ft | 0 kts | 285° |